Time;durP1;ratioP1;P1;durP2;ratioP2;P2;SDS_P1;SDS_P2;PMS_P1;PMS_P2;Temp;Humidity;BMP_temperature;BMP_pressure;BME280_temperature;BME280_humidity;BME280_pressure;Samples;Min_cycle;Max_cycle;Signal;HPM_P1;HPM_P2
2021/11/20 00:02:05;;;;;;;19.27;4.07;;;;;;;10.13;100.00;102337.63;4884119;29;20534;-75
2021/11/20 00:04:32;;;;;;;22.60;4.65;;;;;;;10.12;100.00;102344.66;4881154;29;20045;-75
2021/11/20 00:07:00;;;;;;;17.40;4.45;;;;;;;10.07;100.00;102328.38;4886306;29;20051;-76
2021/11/20 00:09:29;;;;;;;23.10;4.65;;;;;;;10.09;100.00;102336.16;4877801;29;20040;-75
2021/11/20 00:12:03;;;;;;;25.92;4.78;;;;;;;10.10;100.00;102345.72;4887997;29;20051;-76
2021/11/20 00:14:31;;;;;;;21.27;4.75;;;;;;;10.07;100.00;102344.13;4894776;29;20110;-76
2021/11/20 00:17:00;;;;;;;25.42;4.93;;;;;;;10.07;100.00;102338.03;4891436;29;20040;-76
2021/11/20 00:19:29;;;;;;;28.05;4.30;;;;;;;10.09;100.00;102336.16;4887575;29;20040;-76
2021/11/20 00:22:03;;;;;;;18.23;4.45;;;;;;;10.07;100.00;102333.63;4875510;29;20096;-76
2021/11/20 00:24:43;;;;;;;17.52;4.57;;;;;;;10.08;100.00;102330.06;4889649;29;20044;-75
2021/11/20 00:27:16;;;;;;;20.83;4.18;;;;;;;10.08;100.00;102332.69;4880304;29;20050;-75
2021/11/20 00:29:45;;;;;;;22.58;4.50;;;;;;;10.03;100.00;102333.94;4868156;29;20664;-76
2021/11/20 00:32:16;;;;;;;20.35;4.90;;;;;;;9.98;100.00;102326.38;4912913;29;20507;-76
2021/11/20 00:34:44;;;;;;;15.35;4.57;;;;;;;10.02;100.00;102330.50;4908285;29;20073;-76
2021/11/20 00:37:11;;;;;;;20.92;4.63;;;;;;;9.97;100.00;102316.84;4888019;29;20036;-75
2021/11/20 00:39:38;;;;;;;13.80;3.58;;;;;;;9.96;100.00;102325.66;4887098;29;20048;-76
2021/11/20 00:42:06;;;;;;;19.85;4.28;;;;;;;9.92;100.00;102327.63;4899620;29;20088;-75
2021/11/20 00:44:32;;;;;;;22.35;3.97;;;;;;;9.94;100.00;102324.91;4907130;29;20053;-75
2021/11/20 00:46:58;;;;;;;23.25;4.10;;;;;;;10.01;100.00;102327.97;4887236;29;20041;-75
2021/11/20 00:49:25;;;;;;;13.00;3.65;;;;;;;10.02;100.00;102319.16;4883649;29;20084;-75
2021/11/20 00:51:51;;;;;;;20.35;4.32;;;;;;;9.98;100.00;102328.19;4873852;29;20080;-75
2021/11/20 00:54:18;;;;;;;15.70;4.20;;;;;;;9.95;100.00;102318.75;4883692;29;20033;-75
2021/11/20 00:56:44;;;;;;;25.48;4.53;;;;;;;9.92;100.00;102314.53;4892613;29;20040;-76
2021/11/20 00:59:10;;;;;;;19.10;4.85;;;;;;;9.87;100.00;102315.78;4876285;29;20074;-76
2021/11/20 01:01:49;;;;;;;23.75;4.90;;;;;;;9.92;100.00;102319.78;4896810;29;20037;-76
2021/11/20 01:04:16;;;;;;;22.92;4.85;;;;;;;9.93;100.00;102320.63;4879752;29;20797;-76
2021/11/20 01:06:43;;;;;;;17.52;5.15;;;;;;;9.93;100.00;102318.84;4904171;29;20040;-76
2021/11/20 01:09:13;;;;;;;24.00;4.85;;;;;;;9.92;100.00;102321.56;4902449;29;20051;-74
2021/11/20 01:11:48;;;;;;;26.55;4.82;;;;;;;9.92;100.00;102329.44;4884571;29;20064;-74
2021/11/20 01:14:18;;;;;;;15.52;4.60;;;;;;;9.92;100.00;102313.69;4893500;29;20047;-74
2021/11/20 01:16:46;;;;;;;18.17;4.95;;;;;;;9.89;100.00;102313.94;4874407;29;20047;-73
2021/11/20 01:19:13;;;;;;;22.73;6.03;;;;;;;9.91;100.00;102310.25;4880863;29;20042;-74
2021/11/20 01:22:01;;;;;;;21.10;5.72;;;;;;;9.88;100.00;102320.09;4893129;29;20115;-73
2021/11/20 01:24:32;;;;;;;14.13;5.72;;;;;;;9.82;100.00;102321.34;4901063;29;20127;-74
2021/11/20 01:26:59;;;;;;;20.88;5.78;;;;;;;9.91;100.00;102317.28;4888854;29;20032;-74
2021/11/20 01:29:26;;;;;;;26.30;5.30;;;;;;;9.87;100.00;102313.16;4895076;29;20092;-75
2021/11/20 01:31:57;;;;;;;17.63;5.68;;;;;;;9.90;100.00;102315.59;4870003;29;20099;-75
2021/11/20 01:34:26;;;;;;;23.20;5.65;;;;;;;9.87;100.00;102310.53;4906569;29;20052;-74
2021/11/20 01:36:57;;;;;;;18.90;5.72;;;;;;;9.82;100.00;102294.31;4890442;29;20571;-74
2021/11/20 01:39:28;;;;;;;25.65;5.50;;;;;;;9.79;100.00;102305.81;4863959;29;20036;-75
2021/11/20 01:42:29;;;;;;;16.77;6.15;;;;;;;9.81;100.00;102310.97;4879378;29;20418;-74
2021/11/20 01:45:13;;;;;;;20.58;5.03;;;;;;;9.82;100.00;102307.41;4892123;29;20507;-75
2021/11/20 01:47:51;;;;;;;18.15;5.90;;;;;;;9.83;100.00;102303.84;4900147;29;20040;-75
2021/11/20 01:50:32;;;;;;;16.27;6.07;;;;;;;9.81;100.00;102303.94;4885752;29;20597;-75
2021/11/20 01:53:10;;;;;;;20.45;6.15;;;;;;;9.80;100.00;102299.66;4914136;23;20060;-74
2021/11/20 01:55:43;;;;;;;15.68;5.32;;;;;;;9.84;100.00;102303.75;4918378;29;20042;-76
2021/11/20 01:58:50;;;;;;;17.40;5.97;;;;;;;9.83;100.00;102298.59;4900356;29;20514;-73
2021/11/20 02:01:46;;;;;;;26.95;6.22;;;;;;;9.79;100.00;102299.75;4892215;29;20039;-74
2021/11/20 02:04:49;;;;;;;24.00;6.07;;;;;;;9.81;100.00;102295.25;4921305;29;20043;-74
2021/11/20 02:07:27;;;;;;;23.75;5.90;;;;;;;9.82;100.00;102291.69;4888885;29;20040;-72
2021/11/20 02:10:18;;;;;;;21.25;6.28;;;;;;;9.81;100.00;102292.63;4874477;29;20108;-73
2021/11/20 02:12:55;;;;;;;25.35;6.63;;;;;;;9.79;100.00;102300.59;4886973;29;20041;-75
2021/11/20 02:15:33;;;;;;;;;;;;;;;9.80;100.00;102299.66;4873430;29;20147;-76
2021/11/20 02:18:00;;;;;;;17.38;5.93;;;;;;;9.75;100.00;102286.84;4888559;29;19923;-73
2021/11/20 02:20:49;;;;;;;20.70;6.28;;;;;;;9.82;100.00;102291.69;4887365;29;20051;-74
2021/11/20 02:23:35;;;;;;;23.65;6.88;;;;;;;9.77;100.00;102284.13;4902429;29;20048;-74
2021/11/20 02:26:03;;;;;;;19.50;5.72;;;;;;;9.82;100.00;102289.91;4891403;29;20421;-74
2021/11/20 02:28:48;;;;;;;21.15;6.00;;;;;;;9.83;100.00;102293.34;4905496;29;20058;-75
2021/11/20 02:31:36;;;;;;;16.48;6.40;;;;;;;9.81;100.00;102277.72;4886514;29;20052;-73
2021/11/20 02:34:02;;;;;;;20.02;6.78;;;;;;;9.82;100.00;102287.28;4906268;29;20070;-73
2021/11/20 02:36:28;;;;;;;21.17;6.85;;;;;;;9.76;100.00;102282.47;4902190;29;20032;-73
2021/11/20 02:39:01;;;;;;;17.33;6.85;;;;;;;9.79;100.00;102277.00;4890889;29;20052;-74
2021/11/20 02:41:30;;;;;;;31.95;8.27;;;;;;;9.76;100.00;102274.59;4900532;29;20032;-75
2021/11/20 02:44:02;;;;;;;18.35;7.82;;;;;;;9.79;100.00;102290.09;4890597;29;20044;-75
2021/11/20 02:46:34;;;;;;;21.02;7.60;;;;;;;9.81;100.00;102274.28;4890246;29;20039;-75
2021/11/20 02:49:02;;;;;;;23.10;8.07;;;;;;;9.75;100.00;102284.22;4889715;29;20041;-76
2021/11/20 02:51:32;;;;;;;21.73;7.85;;;;;;;9.77;100.00;102280.66;4887517;29;20044;-74
2021/11/20 02:54:11;;;;;;;24.77;8.18;;;;;;;9.75;100.00;102278.97;4874357;29;20438;-74
2021/11/20 02:56:41;;;;;;;27.45;8.05;;;;;;;9.74;100.00;102274.69;4906729;29;20044;-73
2021/11/20 02:59:09;;;;;;;28.20;8.32;;;;;;;9.74;100.00;102266.84;4890071;29;20041;-74
2021/11/20 03:01:43;;;;;;;29.65;8.40;;;;;;;9.75;100.00;102275.53;4870270;29;20051;-74
2021/11/20 03:04:13;;;;;;;25.70;8.20;;;;;;;9.77;100.00;102271.03;4907791;29;20047;-74
2021/11/20 03:06:39;;;;;;;28.90;8.70;;;;;;;9.76;100.00;102274.59;4900872;29;20051;-73
2021/11/20 03:09:08;;;;;;;24.55;8.43;;;;;;;9.72;100.00;102270.50;4893176;29;20040;-73
2021/11/20 03:11:35;;;;;;;23.58;8.85;;;;;;;9.69;100.00;102260.22;4874301;29;20040;-74
2021/11/20 03:14:07;;;;;;;18.40;8.25;;;;;;;9.68;100.00;102269.88;4889372;29;20068;-74
2021/11/20 03:16:53;;;;;;;31.85;8.73;;;;;;;9.70;100.00;102267.13;4909812;29;20040;-74
2021/11/20 03:19:21;;;;;;;27.70;8.52;;;;;;;9.76;100.00;102253.63;4887856;29;20062;-74
2021/11/20 03:21:53;;;;;;;28.85;8.55;;;;;;;9.78;100.00;102251.75;4885824;29;20153;-73
2021/11/20 03:24:20;;;;;;;27.48;8.52;;;;;;;9.69;100.00;102260.22;4894957;29;20044;-74
2021/11/20 03:26:48;;;;;;;31.88;9.05;;;;;;;9.68;100.00;102245.44;4894890;29;20124;-76
2021/11/20 03:29:14;;;;;;;24.75;7.50;;;;;;;9.67;100.00;102246.41;4872592;29;20052;-73
2021/11/20 03:31:41;;;;;;;31.17;8.27;;;;;;;9.68;100.00;102245.44;4893002;29;20549;-73
2021/11/20 03:34:08;;;;;;;23.95;6.68;;;;;;;9.69;100.00;102241.88;4892576;29;20051;-74
2021/11/20 03:36:36;;;;;;;25.45;7.13;;;;;;;9.68;100.00;102246.31;4906085;29;20032;-73
2021/11/20 03:39:08;;;;;;;27.90;7.30;;;;;;;9.72;100.00;102244.31;4876603;29;20492;-74
2021/11/20 03:41:34;;;;;;;22.60;7.15;;;;;;;9.72;100.00;102255.63;4923388;29;20040;-74
2021/11/20 03:44:00;;;;;;;30.40;8.45;;;;;;;9.69;100.00;102244.50;4879414;29;20040;-74
2021/11/20 03:46:27;;;;;;;24.48;8.10;;;;;;;9.69;100.00;102247.13;4901576;29;20056;-73
2021/11/20 03:48:53;;;;;;;26.60;8.40;;;;;;;9.66;100.00;102249.94;4889075;29;20497;-74
2021/11/20 03:51:19;;;;;;;35.58;8.73;;;;;;;9.75;100.00;102250.16;4906300;29;20045;-73
2021/11/20 03:53:45;;;;;;;30.95;8.13;;;;;;;9.71;100.00;102248.69;4883181;29;20052;-74
2021/11/20 03:56:11;;;;;;;29.88;8.13;;;;;;;9.73;100.00;102244.19;4900428;29;20112;-74
2021/11/20 03:58:38;;;;;;;27.30;8.43;;;;;;;9.73;100.00;102251.22;4887932;29;20544;-73
2021/11/20 04:01:13;;;;;;;28.73;9.00;;;;;;;9.75;100.00;102254.56;4892040;29;20036;-73
2021/11/20 04:03:41;;;;;;;32.30;9.25;;;;;;;9.73;100.00;102253.84;4921842;29;20456;-73
2021/11/20 04:06:16;;;;;;;33.40;9.13;;;;;;;9.74;100.00;102258.16;4892686;29;20074;-76
2021/11/20 04:08:50;;;;;;;29.92;8.40;;;;;;;9.69;100.00;102253.19;4918677;29;20048;-74
2021/11/20 04:11:26;;;;;;;24.52;9.40;;;;;;;9.69;100.00;102255.00;4908522;29;20069;-73
2021/11/20 04:13:52;;;;;;;36.45;9.48;;;;;;;9.69;100.00;102239.28;4889579;29;20036;-74
2021/11/20 04:16:22;;;;;;;28.83;8.52;;;;;;;9.74;100.00;102243.25;4877271;29;20044;-74
2021/11/20 04:18:50;;;;;;;30.10;8.85;;;;;;;9.72;100.00;102239.91;4893920;29;20040;-74
2021/11/20 04:21:17;;;;;;;35.13;9.63;;;;;;;9.77;100.00;102239.56;4905730;29;20431;-74
2021/11/20 04:23:47;;;;;;;32.22;9.40;;;;;;;9.70;100.00;102233.94;4903113;29;20064;-74
2021/11/20 04:26:18;;;;;;;26.55;9.80;;;;;;;9.72;100.00;102232.03;4921700;29;20047;-73
2021/11/20 04:28:44;;;;;;;31.52;9.32;;;;;;;9.66;100.00;102228.97;4893899;29;20037;-75
2021/11/20 04:31:19;;;;;;;31.73;9.90;;;;;;;9.65;100.00;102224.72;4906572;29;20056;-75
2021/11/20 04:33:47;;;;;;;36.60;9.05;;;;;;;9.62;100.00;102228.34;4889940;29;20091;-75
2021/11/20 04:36:15;;;;;;;23.77;9.32;;;;;;;9.62;100.00;102225.72;4903905;29;20033;-73
2021/11/20 04:38:41;;;;;;;29.45;9.02;;;;;;;9.65;100.00;102222.91;4905535;29;20337;-73
2021/11/20 04:41:07;;;;;;;33.67;9.50;;;;;;;9.64;100.00;102217.78;4892575;29;20494;-74
2021/11/20 04:43:34;;;;;;;29.27;8.77;;;;;;;9.65;100.00;102212.44;4919504;29;20060;-73
2021/11/20 04:46:01;;;;;;;33.30;8.90;;;;;;;9.64;100.00;102208.13;4892272;29;20482;-73
2021/11/20 04:48:27;;;;;;;26.08;8.70;;;;;;;9.72;100.00;102212.88;4892473;29;20052;-73
2021/11/20 04:51:00;;;;;;;23.25;8.25;;;;;;;9.72;100.00;102213.69;4906052;29;20072;-74
2021/11/20 04:53:27;;;;;;;26.48;9.50;;;;;;;9.75;100.00;102221.34;4888280;29;20132;-74
2021/11/20 04:55:56;;;;;;;34.78;9.35;;;;;;;9.75;100.00;102210.03;4912035;29;20143;-73
2021/11/20 04:58:23;;;;;;;33.03;10.00;;;;;;;9.80;100.00;102212.34;4888818;29;20047;-74
2021/11/20 05:00:52;;;;;;;27.23;10.50;;;;;;;9.81;100.00;102212.22;4874243;29;20100;-73
2021/11/20 05:03:24;;;;;;;34.88;10.02;;;;;;;9.89;100.00;102196.00;4894881;29;20095;-73
2021/11/20 05:05:52;;;;;;;35.65;9.68;;;;;;;9.92;100.00;102198.38;4878582;29;20103;-73
2021/11/20 05:08:20;;;;;;;36.75;11.77;;;;;;;9.93;100.00;102200.91;4922986;29;20122;-73
2021/11/20 05:10:50;;;;;;;26.80;10.43;;;;;;;9.92;100.00;102199.19;4892984;29;20064;-74
2021/11/20 05:13:16;;;;;;;32.05;11.05;;;;;;;9.91;100.00;102200.16;4887192;29;20463;-74
2021/11/20 05:15:44;;;;;;;37.85;11.63;;;;;;;9.90;100.00;102200.25;4903738;29;20138;-74
2021/11/20 05:18:11;;;;;;;36.65;10.77;;;;;;;9.89;100.00;102202.06;4891039;29;20044;-72
2021/11/20 05:20:59;;;;;;;30.42;10.77;;;;;;;9.99;100.00;102199.63;4919278;29;20124;-74
2021/11/20 05:23:32;;;;;;;29.27;9.77;;;;;;;9.92;100.00;102198.38;4891011;29;20037;-74
2021/11/20 05:25:58;;;;;;;32.90;10.90;;;;;;;9.91;100.00;102199.34;4868738;29;20041;-74
2021/11/20 05:28:24;;;;;;;30.85;10.32;;;;;;;9.97;100.00;102196.28;4878363;29;20045;-74
2021/11/20 05:30:52;;;;;;;35.17;12.02;;;;;;;10.07;100.00;102188.59;4892195;29;20044;-74
2021/11/20 05:33:25;;;;;;;35.50;11.30;;;;;;;10.00;100.00;102188.22;4895447;29;20454;-74
2021/11/20 05:35:51;;;;;;;33.03;11.57;;;;;;;9.96;100.00;102181.47;4905177;29;20047;-73
2021/11/20 05:38:17;;;;;;;26.85;11.13;;;;;;;9.96;100.00;102183.28;4888810;29;20763;-73
2021/11/20 05:40:43;;;;;;;28.45;11.45;;;;;;;9.94;100.00;102178.13;4891412;29;20059;-74
2021/11/20 05:43:13;;;;;;;31.48;11.73;;;;;;;9.98;100.00;102178.75;4892471;29;20494;-74
2021/11/20 05:45:43;;;;;;;31.42;12.52;;;;;;;10.02;100.00;102169.72;4885660;29;20409;-74
2021/11/20 05:48:08;;;;;;;26.70;12.68;;;;;;;10.01;100.00;102170.69;4875538;29;20139;-72
2021/11/20 05:50:36;;;;;;;32.42;13.07;;;;;;;9.96;100.00;102163.13;4919034;29;20091;-73
2021/11/20 05:53:14;;;;;;;36.55;13.02;;;;;;;9.97;100.00;102164.00;4874303;29;20041;-73
2021/11/20 05:55:41;;;;;;;29.35;12.98;;;;;;;9.99;100.00;102154.25;4883758;29;20079;-74
2021/11/20 05:58:07;;;;;;;29.27;13.75;;;;;;;9.97;100.00;102156.13;4906643;29;20044;-73
2021/11/20 06:00:37;;;;;;;31.30;12.30;;;;;;;9.99;100.00;102160.31;4918163;29;20418;-73
2021/11/20 06:03:04;;;;;;;32.00;12.40;;;;;;;10.02;100.00;102156.63;4890860;29;20484;-74
2021/11/20 06:05:46;;;;;;;23.42;12.73;;;;;;;9.95;100.00;102158.84;4903604;29;20076;-73
2021/11/20 06:08:14;;;;;;;38.30;13.63;;;;;;;9.98;100.00;102147.31;4891857;29;20051;-74
2021/11/20 06:10:41;;;;;;;28.60;11.70;;;;;;;9.90;100.00;102153.09;4869139;29;20047;-73
2021/11/20 06:13:11;;;;;;;25.48;12.65;;;;;;;9.98;100.00;102158.63;4895615;29;20042;-73
2021/11/20 06:15:45;;;;;;;31.58;12.57;;;;;;;9.88;100.00;102154.97;4901039;29;20573;-73
2021/11/20 06:18:12;;;;;;;28.02;12.40;;;;;;;9.95;100.00;102148.38;4875303;29;20048;-74
2021/11/20 06:20:40;;;;;;;22.50;11.40;;;;;;;9.99;100.00;102155.06;4897265;29;20044;-73
2021/11/20 06:23:07;;;;;;;27.83;11.63;;;;;;;9.99;100.00;102152.44;4908264;29;20067;-73
2021/11/20 06:25:33;;;;;;;24.92;11.02;;;;;;;10.00;100.00;102155.91;4906700;29;20157;-73
2021/11/20 06:27:59;;;;;;;27.20;11.80;;;;;;;9.96;100.00;102160.50;4879640;29;20067;-73
2021/11/20 06:30:27;;;;;;;27.33;11.52;;;;;;;9.89;100.00;102165.38;4891178;29;20032;-74
2021/11/20 06:32:54;;;;;;;26.73;12.45;;;;;;;9.91;100.00;102168.72;4898057;29;20048;-73
2021/11/20 06:35:59;;;;;;;24.15;11.20;;;;;;;9.93;100.00;102168.63;4880038;29;20051;-72
2021/11/20 06:38:36;;;;;;;24.15;10.77;;;;;;;9.89;100.00;102172.41;4906483;29;20036;-74
2021/11/20 06:41:04;;;;;;;26.60;11.27;;;;;;;9.93;100.00;102179.09;4888900;29;20040;-73
2021/11/20 06:43:31;;;;;;;19.95;10.65;;;;;;;9.91;100.00;102181.81;4898357;29;20291;-75
2021/11/20 06:46:00;;;;;;;29.55;11.45;;;;;;;9.93;100.00;102176.47;4893893;29;20072;-73
2021/11/20 06:48:27;;;;;;;25.67;11.10;;;;;;;9.91;100.00;102188.84;4906548;29;20070;-73
2021/11/20 06:51:09;;;;;;;26.67;11.43;;;;;;;9.96;100.00;102196.38;4897000;29;20040;-73
2021/11/20 06:53:36;;;;;;;21.52;11.30;;;;;;;9.92;100.00;102185.28;4890019;29;20032;-74
2021/11/20 06:56:43;;;;;;;25.45;11.18;;;;;;;9.85;100.00;102187.50;4890108;29;20091;-75
2021/11/20 07:02:49;;;;;;;20.15;10.75;;;;;;;9.87;100.00;102196.09;4881793;29;20055;-73
2021/11/20 07:05:18;;;;;;;29.42;11.75;;;;;;;9.90;100.00;102182.75;4909635;29;20096;-75
2021/11/20 07:07:43;;;;;;;26.67;11.85;;;;;;;9.95;100.00;102179.81;4877804;29;20036;-73
2021/11/20 07:10:09;;;;;;;26.33;11.55;;;;;;;10.00;100.00;102180.34;4899285;29;20052;-73
2021/11/20 07:12:35;;;;;;;27.33;12.48;;;;;;;9.97;100.00;102174.47;4898153;29;20037;-73
2021/11/20 07:15:03;;;;;;;27.83;12.88;;;;;;;9.93;100.00;102168.63;4863742;29;20064;-74
2021/11/20 07:17:30;;;;;;;23.92;12.73;;;;;;;9.99;100.00;102173.41;4907330;29;20036;-74
2021/11/20 07:20:16;;;;;;;24.70;12.57;;;;;;;10.02;100.00;102169.72;4890968;29;20149;-75
2021/11/20 07:23:15;;;;;;;28.38;12.05;;;;;;;9.99;100.00;102162.94;4903185;29;20093;-75
2021/11/20 07:25:41;;;;;;;30.50;13.05;;;;;;;9.97;100.00;102170.06;4884169;29;20410;-75
2021/11/20 07:28:07;;;;;;;27.48;14.10;;;;;;;9.97;100.00;102170.06;4915105;29;20485;-74
2021/11/20 07:30:36;;;;;;;26.63;13.70;;;;;;;10.01;100.00;102174.16;4881802;29;20037;-74
2021/11/20 07:33:02;;;;;;;24.70;12.65;;;;;;;10.01;100.00;102160.22;4919609;29;20198;-74
2021/11/20 07:35:50;;;;;;;25.58;12.85;;;;;;;10.06;100.00;102163.34;4903835;29;20029;-73
2021/11/20 07:38:28;;;;;;;25.50;13.25;;;;;;;10.03;100.00;102153.91;4859305;29;20056;-74
2021/11/20 07:40:54;;;;;;;25.85;12.13;;;;;;;10.08;100.00;102148.34;4878202;29;20402;-74
2021/11/20 07:43:20;;;;;;;27.02;12.90;;;;;;;10.12;100.00;102152.41;4904476;29;20076;-74
2021/11/20 07:46:23;;;;;;;23.08;12.93;;;;;;;10.11;100.00;102153.34;4881366;29;20043;-75
2021/11/20 07:48:52;;;;;;;25.58;12.90;;;;;;;10.14;100.00;102148.72;4878458;29;20056;-74
2021/11/20 07:51:19;;;;;;;26.20;12.90;;;;;;;10.10;100.00;102149.91;4877977;29;20573;-74
2021/11/20 07:53:49;;;;;;;28.77;13.30;;;;;;;10.09;100.00;102145.59;4932940;23;20131;-76
2021/11/20 07:56:19;;;;;;;27.90;13.57;;;;;;;10.11;100.00;102142.88;4914609;29;20055;-77
2021/11/20 07:58:50;;;;;;;21.40;12.75;;;;;;;10.10;100.00;102139.41;4915379;29;20082;-77
2021/11/20 08:01:16;;;;;;;23.77;12.02;;;;;;;10.11;100.00;102133.25;4946082;29;20032;-75
2021/11/20 08:03:44;;;;;;;29.17;13.50;;;;;;;10.11;100.00;102130.63;4907895;29;20056;-75
2021/11/20 08:06:26;;;;;;;27.00;12.65;;;;;;;10.04;100.00;102133.75;4913838;29;20036;-76
2021/11/20 08:09:10;;;;;;;21.70;12.20;;;;;;;10.11;100.00;102141.09;4919952;29;20031;-77
2021/11/20 08:11:55;;;;;;;24.75;12.95;;;;;;;10.09;100.00;102129.03;4919823;29;20024;-76
2021/11/20 08:14:21;;;;;;;22.50;12.52;;;;;;;10.04;100.00;102129.38;4897143;29;20043;-76
2021/11/20 08:17:03;;;;;;;25.15;12.05;;;;;;;10.07;100.00;102128.31;4913236;29;20051;-76
2021/11/20 08:19:56;;;;;;;30.17;12.80;;;;;;;10.19;100.00;102132.69;4916336;29;20450;-75
2021/11/20 08:22:41;;;;;;;22.08;12.00;;;;;;;10.16;100.00;102124.19;4915056;29;20098;-76
2021/11/20 08:25:17;;;;;;;23.33;12.00;;;;;;;10.17;100.00;102113.63;4903912;29;20058;-76
2021/11/20 08:27:44;;;;;;;23.77;11.70;;;;;;;10.22;100.00;102113.25;4914598;29;20042;-76
2021/11/20 08:30:12;;;;;;;23.25;10.90;;;;;;;10.23;100.00;102115.78;4904596;29;20059;-76
2021/11/20 08:32:48;;;;;;;24.30;11.40;;;;;;;10.19;100.00;102116.97;4909190;29;20122;-76
2021/11/20 08:35:33;;;;;;;25.02;11.38;;;;;;;10.21;100.00;102107.19;4923311;29;20039;-77
2021/11/20 08:38:18;;;;;;;21.83;11.48;;;;;;;10.20;100.00;102102.88;4920204;29;20134;-77
2021/11/20 08:40:52;;;;;;;20.70;10.98;;;;;;;10.25;100.00;102105.19;4910071;29;20047;-76
2021/11/20 08:43:20;;;;;;;18.13;10.65;;;;;;;10.26;100.00;102105.06;4900433;29;20124;-77
2021/11/20 08:45:50;;;;;;;20.48;10.05;;;;;;;10.31;100.00;102102.97;4899264;29;20071;-76
2021/11/20 08:48:18;;;;;;;24.52;10.98;;;;;;;10.32;100.00;102096.78;4889175;29;20046;-76
2021/11/20 08:50:53;;;;;;;30.40;11.75;;;;;;;10.31;100.00;102097.72;4937117;29;20040;-76
2021/11/20 08:53:20;;;;;;;20.95;10.73;;;;;;;10.32;100.00;102098.56;4914086;29;20047;-76
2021/11/20 08:55:46;;;;;;;18.15;9.90;;;;;;;10.34;100.00;102094.06;4921198;29;20100;-77
2021/11/20 08:58:35;;;;;;;17.15;9.85;;;;;;;10.31;100.00;102089.84;4928005;29;20063;-76
2021/11/20 09:01:09;;;;;;;26.95;10.38;;;;;;;10.28;100.00;102092.69;4898309;29;20063;-76
2021/11/20 09:04:03;;;;;;;;;;;;;;;10.31;100.00;102089.84;4908388;29;20043;-75
2021/11/20 09:06:39;;;;;;;20.60;10.52;;;;;;;10.38;100.00;102092.88;4904272;29;19919;-76
2021/11/20 09:09:26;;;;;;;21.40;10.48;;;;;;;10.43;100.00;102084.66;4924910;29;20044;-76
2021/11/20 09:12:01;;;;;;;18.33;9.52;;;;;;;10.47;100.00;102075.63;4883938;29;20043;-75
2021/11/20 09:14:35;;;;;;;16.30;9.10;;;;;;;10.47;100.00;102075.63;4921828;29;20032;-75
2021/11/20 09:17:12;;;;;;;17.60;9.25;;;;;;;10.46;100.00;102076.59;4898332;29;20044;-76
2021/11/20 09:19:39;;;;;;;21.00;10.25;;;;;;;10.56;100.00;102080.19;4913572;29;20502;-76
2021/11/20 09:22:06;;;;;;;18.60;9.32;;;;;;;10.53;100.00;102083.06;4911491;29;20046;-75
2021/11/20 09:24:41;;;;;;;19.35;9.73;;;;;;;10.57;100.00;102092.38;4906438;29;20059;-76
2021/11/20 09:27:24;;;;;;;20.63;9.90;;;;;;;10.59;100.00;102076.53;4944085;29;20111;-76
2021/11/20 09:29:50;;;;;;;18.10;9.57;;;;;;;10.62;100.00;102081.50;4911800;29;20036;-78
2021/11/20 09:32:17;;;;;;;14.32;8.95;;;;;;;10.74;100.00;102070.13;4919099;29;20039;-75
2021/11/20 09:34:43;;;;;;;21.00;9.05;;;;;;;10.77;100.00;102069.88;4924091;29;20071;-75
2021/11/20 09:37:10;;;;;;;18.50;8.80;;;;;;;10.88;100.00;102074.31;4912314;29;20040;-76
2021/11/20 09:39:53;;;;;;;13.20;8.10;;;;;;;10.86;100.00;102073.59;4898157;29;20040;-76
2021/11/20 09:42:28;;;;;;;11.27;8.02;;;;;;;10.92;100.00;102078.38;4920126;29;20047;-76
2021/11/20 09:45:09;;;;;;;15.95;7.82;;;;;;;10.91;100.00;102082.81;4920968;29;20036;-78
2021/11/20 09:47:48;;;;;;;19.00;8.27;;;;;;;10.94;100.00;102086.97;4917002;29;20450;-77
2021/11/20 09:50:24;;;;;;;17.48;8.05;;;;;;;10.87;100.00;102070.03;4929124;29;20114;-77
2021/11/20 09:52:51;;;;;;;17.02;7.53;;;;;;;10.91;100.00;102077.56;4901246;29;20075;-76
2021/11/20 09:55:25;;;;;;;14.43;8.07;;;;;;;10.94;100.00;102065.97;4925328;29;20078;-76
2021/11/20 09:58:09;;;;;;;15.98;6.75;;;;;;;11.03;100.00;102067.06;4912906;29;20035;-76
2021/11/20 10:00:53;;;;;;;16.25;7.43;;;;;;;11.01;100.00;102069.81;4907338;29;20040;-77
2021/11/20 10:03:40;;;;;;;17.40;7.13;;;;;;;11.01;100.00;102059.31;4924937;29;20046;-76
2021/11/20 10:06:45;;;;;;;14.07;7.20;;;;;;;10.96;100.00;102058.81;4914118;29;20447;-75
2021/11/20 10:09:21;;;;;;;10.32;7.18;;;;;;;11.03;100.00;102054.78;4926208;29;20036;-75
2021/11/20 10:12:26;;;;;;;19.95;7.63;;;;;;;11.00;100.00;102055.03;4892790;29;20035;-75
2021/11/20 10:15:04;;;;;;;17.73;7.43;;;;;;;10.99;100.00;102042.00;4898404;29;20044;-75
2021/11/20 10:17:38;;;;;;;13.05;7.50;;;;;;;11.05;100.00;102052.03;4914473;29;20502;-75
2021/11/20 10:20:16;;;;;;;9.85;6.40;;;;;;;11.06;100.00;102045.84;4909091;29;20097;-75
2021/11/20 10:22:54;;;;;;;12.07;6.60;;;;;;;11.03;100.00;102035.56;4890146;29;20054;-76
2021/11/20 10:25:52;;;;;;;11.57;6.80;;;;;;;11.07;100.00;102032.56;4897840;29;20059;-75
2021/11/20 10:28:34;;;;;;;11.90;7.15;;;;;;;11.02;100.00;102032.13;4916886;29;20048;-75
2021/11/20 10:31:18;;;;;;;11.13;6.70;;;;;;;11.04;100.00;102034.63;4917283;29;20035;-76
2021/11/20 10:33:48;;;;;;;9.85;6.15;;;;;;;11.04;100.00;102026.75;4915525;29;20143;-76
2021/11/20 10:36:17;;;;;;;11.35;5.88;;;;;;;11.00;100.00;102030.53;4903780;29;20039;-76
2021/11/20 10:38:54;;;;;;;10.43;6.05;;;;;;;10.99;100.00;102024.47;4917104;29;20131;-76
2021/11/20 10:41:32;;;;;;;9.75;6.47;;;;;;;10.97;100.00;102022.91;4914215;29;20067;-76
2021/11/20 10:44:18;;;;;;;14.02;6.00;;;;;;;10.95;100.00;102020.41;4925777;29;20028;-75
2021/11/20 10:47:02;;;;;;;15.57;6.35;;;;;;;10.96;100.00;102021.22;4914258;29;20040;-76
2021/11/20 10:49:45;;;;;;;11.82;6.03;;;;;;;10.94;100.00;102017.88;4932399;29;20491;-75
2021/11/20 10:53:09;;;;;;;12.90;6.60;;;;;;;10.88;100.00;102022.66;4904803;29;20576;-78
2021/11/20 10:55:56;;;;;;;14.05;6.95;;;;;;;10.91;100.00;102019.81;4904143;29;20622;-76
2021/11/20 10:58:50;;;;;;;10.48;6.85;;;;;;;10.78;100.00;102013.81;4903453;29;20596;-76
2021/11/20 11:01:44;;;;;;;14.35;6.75;;;;;;;10.70;100.00;102003.06;4885675;29;20036;-75
2021/11/20 11:04:48;;;;;;;11.57;6.47;;;;;;;10.69;100.00;101998.75;4924087;29;20055;-76
2021/11/20 11:07:29;;;;;;;9.65;6.45;;;;;;;10.72;100.00;101995.91;4896572;29;20048;-75
2021/11/20 11:09:58;;;;;;;11.23;6.40;;;;;;;10.64;100.00;101985.16;4927398;29;20052;-74
2021/11/20 11:12:37;;;;;;;10.55;6.65;;;;;;;10.72;100.00;101988.06;4910100;29;20028;-75
2021/11/20 11:15:08;;;;;;;11.40;5.40;;;;;;;10.71;100.00;101976.69;4917367;29;20123;-73
2021/11/20 11:17:49;;;;;;;16.45;5.90;;;;;;;10.75;100.00;101973.84;4914913;29;20031;-74
2021/11/20 11:20:32;;;;;;;9.13;5.90;;;;;;;10.77;100.00;101957.03;4910258;29;20039;-75
2021/11/20 11:23:10;;;;;;;8.10;5.43;;;;;;;10.68;100.00;101947.22;4921183;29;20033;-75
2021/11/20 11:25:50;;;;;;;9.13;5.10;;;;;;;10.72;100.00;101938.19;4896544;29;20047;-74
2021/11/20 11:28:24;;;;;;;9.95;4.90;;;;;;;10.71;100.00;101933.88;4917017;29;20463;-76
2021/11/20 11:31:24;;;;;;;9.38;4.90;;;;;;;10.74;100.00;101938.91;4907186;29;20108;-74
2021/11/20 11:34:00;;;;;;;10.10;5.47;;;;;;;10.74;100.00;101936.28;4908271;29;20130;-75
2021/11/20 11:36:39;;;;;;;9.32;5.72;;;;;;;10.73;100.00;101931.16;4911197;29;20183;-75
2021/11/20 11:39:33;;;;;;;9.63;5.70;;;;;;;10.62;100.00;101927.53;4895062;29;20411;-75
2021/11/20 11:42:07;;;;;;;8.23;5.63;;;;;;;10.61;100.00;101927.69;4918305;29;20453;-75
2021/11/20 11:44:56;;;;;;;10.10;6.32;;;;;;;10.65;100.00;101916.00;4923545;29;20131;-74
2021/11/20 11:47:35;;;;;;;10.07;6.53;;;;;;;10.62;100.00;101917.03;4898601;29;20051;-74